createdAt,value
2019-05-07T00:01:46.099Z,84.29
2019-05-07T00:06:43.467Z,84.75
2019-05-07T00:11:42.463Z,82.80
2019-05-07T00:16:37.555Z,82.66
2019-05-07T00:21:33.430Z,82.85
2019-05-07T00:26:29.363Z,82.98
2019-05-07T00:31:25.142Z,85.47
2019-05-07T00:36:34.038Z,83.07
2019-05-07T00:41:38.961Z,83.26
2019-05-07T00:46:34.945Z,84.58
2019-05-07T00:51:33.319Z,84.22
2019-05-07T00:56:29.540Z,83.36
2019-05-07T01:01:25.365Z,84.28
2019-05-07T01:06:22.721Z,84.62
2019-05-07T01:11:18.649Z,85.63
2019-05-07T01:16:14.912Z,84.59
2019-05-07T01:21:10.624Z,86.51
2019-05-07T01:26:06.585Z,84.05
2019-05-07T01:31:02.349Z,84.08
2019-05-07T01:36:19.951Z,85.60
2019-05-07T01:41:15.753Z,84.74
2019-05-07T01:46:12.401Z,85.85
2019-05-07T01:51:08.408Z,85.69
2019-05-07T01:56:04.256Z,85.43
2019-05-07T02:01:00.050Z,84.32
2019-05-07T02:06:13.169Z,85.95
2019-05-07T02:11:12.759Z,85.53
2019-05-07T02:16:08.074Z,85.34
2019-05-07T02:21:03.829Z,84.71
2019-05-07T02:25:59.733Z,85.85
2019-05-07T02:30:55.461Z,86.28
2019-05-07T02:35:53.435Z,86.34
2019-05-07T02:40:56.418Z,86.50
2019-05-07T02:46:25.039Z,85.01
2019-05-07T02:51:15.813Z,85.57
2019-05-07T02:56:12.971Z,86.85
2019-05-07T03:01:13.439Z,86.19
2019-05-07T03:06:07.559Z,85.66
2019-05-07T03:11:03.731Z,86.56
2019-05-07T03:16:03.758Z,86.12
2019-05-07T03:21:06.591Z,86.25
2019-05-07T03:26:13.667Z,86.47
2019-05-07T03:31:17.168Z,85.97
2019-05-07T03:36:16.562Z,87.06
2019-05-07T03:41:12.831Z,86.56
2019-05-07T03:46:14.176Z,86.63
2019-05-07T03:51:09.499Z,86.66
2019-05-07T03:56:05.418Z,88.65
2019-05-07T04:01:04.367Z,87.22
2019-05-07T04:05:58.957Z,87.70
2019-05-07T04:10:54.811Z,87.31
2019-05-07T04:15:52.578Z,87.13
2019-05-07T04:20:48.225Z,86.63
2019-05-07T04:26:07.020Z,87.42
2019-05-07T04:31:03.527Z,87.45
2019-05-07T04:36:14.393Z,87.99
2019-05-07T04:41:10.279Z,87.15
2019-05-07T04:46:06.069Z,87.40
2019-05-07T04:51:03.750Z,83.64
2019-05-07T04:55:59.629Z,82.11
2019-05-07T05:00:55.429Z,82.43
2019-05-07T05:05:53.177Z,82.33
2019-05-07T05:10:48.767Z,82.77
2019-05-07T05:15:44.650Z,84.05
2019-05-07T05:20:59.391Z,85.52
2019-05-07T05:25:55.300Z,86.67
2019-05-07T05:30:55.846Z,86.69
2019-05-07T05:35:52.784Z,87.48
2019-05-07T05:40:48.514Z,87.79
2019-05-07T05:45:45.325Z,87.64
2019-05-07T05:50:48.499Z,88.00
2019-05-07T05:55:45.198Z,88.09
2019-05-07T06:01:06.003Z,87.64
2019-05-07T06:06:14.677Z,88.35
2019-05-07T06:11:33.682Z,89.80
2019-05-07T06:16:36.587Z,87.41
2019-05-07T06:21:52.464Z,86.55
2019-05-07T06:26:47.504Z,85.84
2019-05-07T06:31:45.032Z,86.84
2019-05-07T06:36:42.416Z,85.77
2019-05-07T06:42:06.089Z,83.67
2019-05-07T06:47:02.530Z,81.79
2019-05-07T06:51:58.381Z,78.43
2019-05-07T06:56:54.377Z,78.11
2019-05-07T07:02:05.704Z,78.51
2019-05-07T07:07:27.207Z,73.50
2019-05-07T07:12:24.063Z,72.26
2019-05-07T07:17:18.237Z,69.94
2019-05-07T07:22:14.025Z,66.83
2019-05-07T07:27:09.930Z,66.13
2019-05-07T07:32:07.145Z,65.08
2019-05-07T07:37:10.881Z,61.89
2019-05-07T07:42:07.675Z,62.06
2019-05-07T07:47:03.706Z,62.04
2019-05-07T07:51:59.655Z,61.82
2019-05-07T07:57:12.486Z,60.94
2019-05-07T08:02:16.727Z,60.61
2019-05-07T08:07:12.636Z,59.86
2019-05-07T08:12:08.672Z,58.05
2019-05-07T08:17:06.898Z,55.63
2019-05-07T08:22:03.144Z,53.65
2019-05-07T08:26:58.928Z,53.30
2019-05-07T08:32:26.041Z,51.82
2019-05-07T08:37:24.205Z,51.62
2019-05-07T08:42:19.280Z,50.80
2019-05-07T08:47:23.947Z,50.48
2019-05-07T08:52:19.724Z,50.63
2019-05-07T08:57:15.644Z,47.99
2019-05-07T09:02:12.597Z,47.32
2019-05-07T09:07:08.555Z,47.85
2019-05-07T09:12:04.551Z,50.64
2019-05-07T09:17:02.448Z,48.10
2019-05-07T09:21:57.736Z,42.47
2019-05-07T09:27:06.381Z,42.42
2019-05-07T09:32:32.483Z,43.94
2019-05-07T09:37:28.880Z,42.41
2019-05-07T09:42:24.775Z,42.32
2019-05-07T09:47:21.904Z,39.94
2019-05-07T09:52:17.859Z,40.94
2019-05-07T09:57:27.219Z,41.49
2019-05-07T10:02:12.298Z,41.66
2019-05-07T10:07:09.189Z,42.54
2019-05-07T10:12:23.859Z,43.53
2019-05-07T10:17:29.715Z,41.75
2019-05-07T10:22:25.470Z,41.72
2019-05-07T10:27:21.886Z,42.62
2019-05-07T10:32:18.157Z,40.65
2019-05-07T10:37:13.950Z,40.57
2019-05-07T10:42:09.841Z,41.34
2019-05-07T10:47:42.755Z,40.29
2019-05-07T10:52:38.538Z,41.43
2019-05-07T10:57:34.265Z,38.80
2019-05-07T11:02:32.496Z,38.94
2019-05-07T11:07:28.223Z,37.52
2019-05-07T11:12:23.980Z,38.87
2019-05-07T11:17:28.498Z,38.33
2019-05-07T11:22:24.350Z,37.74
2019-05-07T11:27:22.427Z,35.21
2019-05-07T11:32:17.751Z,39.40
2019-05-07T11:37:13.658Z,35.56
2019-05-07T11:42:28.447Z,34.81
2019-05-07T11:47:31.874Z,33.12
2019-05-07T11:52:35.598Z,31.70
2019-05-07T11:57:29.983Z,29.50
2019-05-07T12:02:25.818Z,35.76
2019-05-07T12:07:22.314Z,31.26
2019-05-07T12:12:18.219Z,34.49
2019-05-07T12:17:13.965Z,34.12
2019-05-07T12:22:11.982Z,32.95
2019-05-07T12:27:07.481Z,29.22
2019-05-07T12:32:32.370Z,32.69
2019-05-07T12:37:28.207Z,31.65
2019-05-07T12:42:24.022Z,33.33
2019-05-07T12:47:19.777Z,34.51
2019-05-07T12:52:34.462Z,30.10
2019-05-07T12:57:30.230Z,29.51
2019-05-07T13:02:52.129Z,34.46
2019-05-07T13:07:55.511Z,31.04
2019-05-07T13:12:52.608Z,31.39
2019-05-07T13:17:48.551Z,30.61
2019-05-07T13:22:44.287Z,28.62
2019-05-07T13:27:40.323Z,29.43
2019-05-07T13:32:38.865Z,30.11
2019-05-07T13:37:36.900Z,29.43
2019-05-07T13:42:44.170Z,32.19
2019-05-07T13:47:42.295Z,32.47
2019-05-07T13:52:38.256Z,29.94
2019-05-07T13:58:22.940Z,30.99
2019-05-07T14:04:08.259Z,31.49
2019-05-07T14:09:47.552Z,29.35
2019-05-07T14:15:03.761Z,34.46
2019-05-07T14:20:49.083Z,32.49
2019-05-07T14:26:17.535Z,31.80
2019-05-07T14:32:24.554Z,32.53
2019-05-07T14:38:04.467Z,33.17
2019-05-07T14:43:52.643Z,34.57
2019-05-07T14:49:03.235Z,36.27
2019-05-07T14:54:18.443Z,34.67
2019-05-07T14:59:53.230Z,33.74
2019-05-07T15:05:30.096Z,37.24
2019-05-07T15:10:41.718Z,33.77
2019-05-07T15:21:43.026Z,35.08
2019-05-07T15:27:00.417Z,35.15
2019-05-07T15:32:18.754Z,39.37
2019-05-07T15:43:52.116Z,35.58
2019-05-07T15:49:46.834Z,35.10
2019-05-07T15:54:52.311Z,37.12
2019-05-07T16:00:38.218Z,37.30
2019-05-07T17:55:12.944Z,41.66
2019-05-07T18:00:08.338Z,43.10
2019-05-07T18:05:04.153Z,42.21
2019-05-07T18:10:02.259Z,45.31
2019-05-07T18:14:57.756Z,47.51
2019-05-07T18:19:53.749Z,46.50
2019-05-07T18:24:49.821Z,48.61
2019-05-07T18:29:45.840Z,49.61
2019-05-07T18:34:42.785Z,53.14
2019-05-07T18:39:38.848Z,50.76
2019-05-07T18:44:34.751Z,52.90
2019-05-07T18:49:30.651Z,48.96
2019-05-07T18:54:30.876Z,53.52
2019-05-07T18:59:26.619Z,55.18
2019-05-07T19:04:22.845Z,54.40
2019-05-07T19:09:18.838Z,53.16
2019-05-07T19:14:14.678Z,54.53
2019-05-07T19:19:12.409Z,53.39
2019-05-07T19:24:08.174Z,55.87
2019-05-07T19:29:04.107Z,55.09
2019-05-07T19:34:00.281Z,55.29
2019-05-07T19:38:56.679Z,55.16
2019-05-07T19:43:52.871Z,56.37
2019-05-07T19:48:48.740Z,55.41
2019-05-07T19:53:44.626Z,56.18
2019-05-07T19:58:41.915Z,57.79
2019-05-07T20:03:38.032Z,57.23
2019-05-07T20:08:33.871Z,55.57
2019-05-07T20:13:31.905Z,57.21
2019-05-07T20:18:27.481Z,59.97
2019-05-07T20:23:23.288Z,58.99
2019-05-07T20:28:19.318Z,61.12
2019-05-07T20:33:15.534Z,61.97
2019-05-07T20:38:11.449Z,59.38
2019-05-07T20:43:07.241Z,60.86
2019-05-07T20:48:04.003Z,64.56
2019-05-07T20:53:01.899Z,61.99
2019-05-07T20:57:58.369Z,64.41
2019-05-07T21:03:12.557Z,64.87
2019-05-07T21:08:08.624Z,62.50
2019-05-07T21:13:04.527Z,65.60
2019-05-07T21:18:00.356Z,65.54
2019-05-07T21:22:57.226Z,64.29
2019-05-07T21:27:53.207Z,64.17
2019-05-07T21:32:49.279Z,64.23
2019-05-07T21:37:45.292Z,64.24
2019-05-07T21:42:42.586Z,66.87
2019-05-07T21:47:39.155Z,68.97
2019-05-07T21:52:39.463Z,70.84
2019-05-07T21:57:55.369Z,73.29
2019-05-07T22:02:52.673Z,73.92
2019-05-07T22:07:48.638Z,75.25
2019-05-07T22:12:44.649Z,76.04
2019-05-07T22:17:44.207Z,77.03
2019-05-07T22:22:37.937Z,77.88
2019-05-07T22:27:33.679Z,79.76
2019-05-07T22:32:46.106Z,81.32
2019-05-07T22:37:41.933Z,81.64
2019-05-07T22:42:37.880Z,82.18
2019-05-07T22:47:33.595Z,82.93
2019-05-07T22:52:29.417Z,83.22
2019-05-07T22:57:44.251Z,82.83
2019-05-07T23:02:42.645Z,82.68
2019-05-07T23:07:37.723Z,83.17
2019-05-07T23:12:33.606Z,80.71
2019-05-07T23:17:32.558Z,79.73
2019-05-07T23:22:27.883Z,79.96
2019-05-07T23:27:23.781Z,77.00
2019-05-07T23:32:19.526Z,78.27
2019-05-07T23:37:15.310Z,79.05
2019-05-07T23:42:18.262Z,72.95
2019-05-07T23:47:14.021Z,74.70
2019-05-07T23:52:09.759Z,75.64
2019-05-07T23:57:09.506Z,75.97
